• Join FlightAware (Why Join?)
  • Login
  • US Flag 
12:15PM EST


 

Airport Tracker/Info


-or-


 

Live Flight TrackerFlight Track Log ✈ SKW6345 ✈ 06-Jun-2014 ✈ KLAX - KFAT

Flight Track Log - Related Links

Times and Time Zones

All times are in EDT time to prevent confusion due to time zone crossing. See the SKW6345 flight status page for this flight to view local times or setup timezone preferences in your user account.

Time Position Orientation Groundspeed Altitude Reporting Facility
EDT Latitude Longitude Course Direction KTS MPH feet Rate Location/Type
08:05PM 33.9506 -118.4711 338° Northwest 157 181 2,200  Level Los Angeles Center
08:06PM 33.9572 -118.5336 277° West 174 200 4,300 1,860 Climbing Los Angeles Center
08:07PM 33.9761 -118.5825 295° West 167 192 6,100 1,260 Climbing Los Angeles Center
08:08PM 34.0181 -118.6211 323° Northwest 199 229 7,000 660 Climbing Los Angeles Center
08:09PM 34.0850 -118.6294 354° North 240 276 7,500 1,200 Climbing Los Angeles Center
08:11PM 34.2812 -118.5823 338° Northwest  Level FlightAware Approximate
08:11PM 34.1469 -118.6392 353° North 225 259 9,500  Level Los Angeles Center
08:12PM 34.2050 -118.6442 356° North 212 244 11,200 1,200 Climbing Los Angeles Center
08:13PM 34.2631 -118.6647 344° North 214 246 12,000 360 Climbing Los Angeles Center
08:14PM 34.3311 -118.6903 343° North 250 288 12,000  Level Los Angeles Center
08:15PM 34.4189 -118.7200 344° North 271 312 12,000  Level Los Angeles Center
08:16PM 34.4922 -118.7481 342° North 273 314 12,100 720 Climbing Los Angeles Center
08:17PM 34.5603 -118.7703 345° North 253 291 13,500 1,200 Climbing Los Angeles Center
08:18PM 34.6203 -118.7867 347° North 226 260 14,600 960 Climbing Los Angeles Center
08:19PM 34.6797 -118.7983 351° North 216 249 15,600 660 Climbing Los Angeles Center
08:20PM 34.7486 -118.8100 352° North 236 272 16,000 180 Climbing Los Angeles Center
08:21PM 34.8358 -118.8231 353° North 269 310 16,000 -60 Level Los Angeles Center
08:22PM 34.9122 -118.8381 351° North 278 320 15,900  Descending Los Angeles Center
08:23PM 34.9889 -118.8517 352° North 278 320 16,100 480 Climbing Los Angeles Center
08:24PM 35.0597 -118.8650 351° North 262 302 16,900 660 Climbing Los Angeles Center
08:25PM 35.1258 -118.8769 352° North 248 285 17,500 720 Climbing Los Angeles Center
08:26PM 35.2078 -118.8908 352° North 247 284 18,400 720 Climbing Los Angeles Center
08:27PM 35.2747 -118.9028 352° North 247 284 19,000 600 Climbing Los Angeles Center
08:28PM 35.3436 -118.9161 351° North 249 287 19,700 480 Climbing Los Angeles Center
08:29PM 35.4156 -118.9294 351° North 256 295 20,000 120 Climbing Los Angeles Center
08:30PM 35.4908 -118.9428 352° North 271 312 20,000  Level Los Angeles Center
08:31PM 35.5872 -118.9603 352° North 285 328 20,000  Level Los Angeles Center
08:32PM 35.6650 -118.9747 351° North 285 328 20,000 -60 Level Los Angeles Center
08:33PM 35.7450 -118.9894 352° North 287 330 19,900 -720 Descending Los Angeles Center
08:34PM 35.8231 -119.0006 353° North 287 330 18,500 -1,680 Descending Los Angeles Center
08:35PM 35.9008 -119.0153 351° North 285 328 16,500 -1,800 Descending Los Angeles Center
08:36PM 35.9708 -119.0494 338° Northwest 271 312 14,900 -1,260 Descending Los Angeles Center
08:37PM 36.0522 -119.0883 339° North 266 306 14,000 -480 Descending Los Angeles Center
08:38PM 36.1175 -119.1186 339° North 254 292 14,000  Level Los Angeles Center
08:40PM 36.1861 -119.1508 339° North 259 298 14,000 -720 Level Los Angeles Center
08:41PM 36.2622 -119.1847 340° North 280 322 12,600 -1,440 Descending Los Angeles Center
08:42PM 36.3422 -119.2239 338° Northwest 300 345 11,000 -1,620 Descending Los Angeles Center
08:43PM 36.4439 -119.2736 339° North 247 284 8,700 -1,500 Descending Oakland Center
08:44PM 36.5042 -119.3014 340° North 235 270 7,300 -1,500 Descending Oakland Center
08:45PM 36.5578 -119.3331 335° Northwest 219 252 5,700 -1,620 Descending Oakland Center
08:46PM 36.5928 -119.3947 305° West 219 252 4,100 -840 Descending Oakland Center
08:47PM 36.6261 -119.4533 305° West 213 245 4,000 -720 Descending Oakland Center
08:48PM 36.6639 -119.5197 305° West 207 238 2,700 -1,080 Descending Oakland Center
08:49PM 36.6942 -119.5731 305° West 199 229 1,800 -480 Descending Oakland Center
08:50PM 36.7211 -119.6200 306° West 167 192 1,800 -300 Level Oakland Center
08:51PM 36.7428 -119.6572 306° West 144 166 1,300 -540 Descending Oakland Center
08:52PM 36.7633 -119.6942 305° West 128 147 700 -480 Descending Oakland Center
08:53PM 36.7836 -119.7294 306° West 127 146 400 -300 Descending Oakland Center